createdAt,value
2019-03-18T00:01:40.597Z,87.40
2019-03-18T00:04:12.191Z,87.60
2019-03-18T00:06:42.877Z,87.70
2019-03-18T00:09:13.467Z,87.50
2019-03-18T00:11:44.028Z,87.40
2019-03-18T00:14:14.585Z,87.20
2019-03-18T00:16:45.157Z,87.10
2019-03-18T00:19:15.763Z,86.20
2019-03-18T00:21:46.301Z,85.90
2019-03-18T00:24:16.863Z,86.00
2019-03-18T00:26:47.437Z,85.40
2019-03-18T00:29:18.059Z,85.10
2019-03-18T00:31:48.649Z,84.70
2019-03-18T00:34:19.155Z,84.20
2019-03-18T00:36:49.733Z,84.20
2019-03-18T00:39:20.211Z,84.30
2019-03-18T00:41:50.537Z,84.10
2019-03-18T00:44:20.864Z,84.70
2019-03-18T00:46:51.537Z,84.70
2019-03-18T00:49:21.881Z,85.00
2019-03-18T00:51:53.430Z,85.40
2019-03-18T00:54:23.769Z,86.00
2019-03-18T00:56:54.097Z,86.40
2019-03-18T00:59:24.439Z,86.80
2019-03-18T01:01:54.769Z,87.20
2019-03-18T01:04:25.085Z,87.50
2019-03-18T01:06:55.413Z,87.80
2019-03-18T01:09:25.713Z,88.20
2019-03-18T01:11:56.369Z,88.50
2019-03-18T01:14:26.690Z,88.80
2019-03-18T01:16:56.985Z,89.00
2019-03-18T01:19:27.297Z,89.00
2019-03-18T01:21:58.965Z,88.50
2019-03-18T01:24:29.291Z,88.20
2019-03-18T01:26:59.648Z,87.70
2019-03-18T01:29:30.026Z,87.20
2019-03-18T01:32:00.365Z,86.90
2019-03-18T01:34:30.723Z,86.60
2019-03-18T01:37:02.694Z,86.60
2019-03-18T01:39:33.001Z,86.30
2019-03-18T01:42:03.311Z,86.20
2019-03-18T01:44:33.687Z,86.30
2019-03-18T01:47:04.016Z,86.50
2019-03-18T01:49:34.364Z,86.90
2019-03-18T01:52:05.465Z,87.10
2019-03-18T01:54:36.181Z,87.40
2019-03-18T01:57:06.592Z,87.40
2019-03-18T01:59:36.881Z,87.20
2019-03-18T02:02:07.266Z,87.10
2019-03-18T02:04:37.587Z,87.20
2019-03-18T02:07:07.857Z,87.00
2019-03-18T02:09:38.185Z,87.10
2019-03-18T02:12:08.483Z,86.80
2019-03-18T02:14:38.809Z,86.90
2019-03-18T02:17:09.101Z,87.10
2019-03-18T02:19:39.599Z,87.40
2019-03-18T02:22:11.183Z,88.40
2019-03-18T02:24:41.469Z,89.50
2019-03-18T02:27:11.777Z,89.70
2019-03-18T02:29:42.143Z,89.80
2019-03-18T02:32:13.218Z,90.00
2019-03-18T02:34:43.548Z,90.40
2019-03-18T02:37:13.899Z,90.60
2019-03-18T02:39:44.233Z,91.00
2019-03-18T02:42:14.509Z,91.40
2019-03-18T02:44:44.802Z,91.80
2019-03-18T02:47:15.182Z,92.20
2019-03-18T02:49:45.500Z,92.90
2019-03-18T02:52:16.583Z,92.90
2019-03-18T02:54:46.905Z,93.40
2019-03-18T02:57:17.243Z,93.70
2019-03-18T02:59:47.565Z,93.90
2019-03-18T03:02:18.568Z,94.00
2019-03-18T03:04:48.903Z,94.20
2019-03-18T03:07:20.283Z,94.50
2019-03-18T03:09:50.561Z,94.90
2019-03-18T03:12:20.867Z,95.10
2019-03-18T03:14:51.149Z,95.30
2019-03-18T03:17:22.251Z,95.50
2019-03-18T03:19:52.678Z,95.50
2019-03-18T03:22:23.392Z,95.50
2019-03-18T03:24:53.720Z,95.60
2019-03-18T03:27:23.994Z,95.90
2019-03-18T03:29:54.359Z,96.10
2019-03-18T03:32:24.649Z,96.30
2019-03-18T03:34:55.001Z,96.40
2019-03-18T03:37:25.298Z,96.50
2019-03-18T03:39:55.653Z,96.80
2019-03-18T03:42:26.030Z,97.00
2019-03-18T03:44:56.390Z,97.20
2019-03-18T03:47:26.968Z,97.40
2019-03-18T03:49:57.241Z,97.60
2019-03-18T03:52:28.998Z,97.70
2019-03-18T03:54:59.335Z,97.70
2019-03-18T03:57:29.730Z,97.80
2019-03-18T04:00:00.480Z,98.30
2019-03-18T04:02:30.910Z,98.40
2019-03-18T04:05:01.245Z,98.00
2019-03-18T04:07:32.623Z,98.00
2019-03-18T04:10:02.918Z,98.10
2019-03-18T04:12:33.226Z,98.00
2019-03-18T04:15:03.582Z,98.00
2019-03-18T04:17:33.919Z,97.80
2019-03-18T04:20:04.373Z,97.80
2019-03-18T04:22:35.969Z,97.80
2019-03-18T04:25:06.535Z,97.80
2019-03-18T04:27:37.901Z,97.80
2019-03-18T04:30:08.856Z,97.70
2019-03-18T04:32:40.227Z,97.70
2019-03-18T04:35:10.787Z,97.80
2019-03-18T04:37:41.133Z,97.80
2019-03-18T04:40:11.575Z,97.90
2019-03-18T04:42:41.915Z,97.90
2019-03-18T04:45:12.249Z,97.80
2019-03-18T04:47:42.573Z,97.80
2019-03-18T04:50:13.493Z,97.90
2019-03-18T04:52:45.085Z,97.70
2019-03-18T04:55:15.401Z,97.50
2019-03-18T04:57:45.779Z,97.60
2019-03-18T05:00:16.084Z,97.60
2019-03-18T05:02:46.397Z,97.50
2019-03-18T05:05:16.731Z,97.40
2019-03-18T05:07:47.049Z,97.40
2019-03-18T05:10:17.416Z,97.40
2019-03-18T05:12:47.714Z,97.30
2019-03-18T05:15:18.028Z,97.20
2019-03-18T05:17:48.329Z,97.10
2019-03-18T05:20:18.639Z,97.10
2019-03-18T05:22:50.440Z,97.20
2019-03-18T05:25:20.965Z,97.20
2019-03-18T05:27:51.553Z,97.10
2019-03-18T05:30:22.337Z,97.00
2019-03-18T05:32:52.819Z,96.90
2019-03-18T05:35:23.077Z,96.80
2019-03-18T05:37:53.430Z,96.70
2019-03-18T05:40:23.756Z,96.70
2019-03-18T05:42:54.079Z,96.60
2019-03-18T05:45:24.442Z,96.50
2019-03-18T05:47:54.695Z,96.50
2019-03-18T05:50:24.993Z,96.50
2019-03-18T05:52:56.646Z,96.50
2019-03-18T05:55:26.963Z,96.50
2019-03-18T05:57:57.302Z,96.50
2019-03-18T06:00:27.621Z,96.30
2019-03-18T06:02:59.015Z,96.20
2019-03-18T06:05:29.313Z,96.10
2019-03-18T06:07:59.673Z,95.80
2019-03-18T06:10:29.968Z,95.90
2019-03-18T06:13:00.262Z,95.90
2019-03-18T06:15:30.583Z,95.70
2019-03-18T06:18:00.913Z,95.50
2019-03-18T06:20:31.243Z,95.30
2019-03-18T06:23:01.949Z,95.00
2019-03-18T06:25:32.321Z,94.80
2019-03-18T06:28:02.597Z,94.80
2019-03-18T06:30:32.909Z,94.80
2019-03-18T06:33:03.260Z,94.50
2019-03-18T06:35:33.565Z,94.10
2019-03-18T06:38:03.933Z,94.20
2019-03-18T06:40:34.295Z,94.20
2019-03-18T06:43:04.529Z,94.00
2019-03-18T06:45:34.834Z,93.80
2019-03-18T06:48:05.574Z,93.90
2019-03-18T06:50:36.108Z,93.90
2019-03-18T06:53:06.711Z,93.70
2019-03-18T06:55:36.996Z,93.40
2019-03-18T06:58:07.341Z,93.30
2019-03-18T07:00:37.657Z,93.10
2019-03-18T07:03:07.942Z,92.90
2019-03-18T07:05:38.239Z,92.60
2019-03-18T07:08:08.553Z,92.60
2019-03-18T07:10:38.907Z,92.80
2019-03-18T07:13:09.221Z,92.60
2019-03-18T07:15:39.649Z,92.50
2019-03-18T07:18:18.200Z,92.20
2019-03-18T07:20:41.938Z,92.00
2019-03-18T07:23:13.443Z,91.70
2019-03-18T07:25:43.743Z,91.40
2019-03-18T07:28:14.146Z,91.20
2019-03-18T07:30:44.518Z,91.00
2019-03-18T07:33:15.973Z,90.50
2019-03-18T07:35:46.292Z,90.50
2019-03-18T07:38:16.645Z,90.20
2019-03-18T07:40:46.961Z,89.40
2019-03-18T07:43:17.320Z,88.90
2019-03-18T07:45:47.703Z,88.00
2019-03-18T07:48:29.943Z,88.40
2019-03-18T07:50:50.003Z,87.40
2019-03-18T07:53:20.561Z,86.60
2019-03-18T07:55:50.877Z,86.30
2019-03-18T07:58:22.467Z,86.60
2019-03-18T08:00:54.075Z,85.00
2019-03-18T08:03:24.431Z,83.40
2019-03-18T08:05:55.857Z,84.30
2019-03-18T08:08:26.207Z,81.30
2019-03-18T08:10:56.610Z,80.80
2019-03-18T08:13:26.911Z,80.80
2019-03-18T08:15:57.225Z,78.80
2019-03-18T08:18:28.641Z,78.00
2019-03-18T08:20:59.033Z,77.10
2019-03-18T08:23:29.910Z,73.70
2019-03-18T08:26:00.222Z,74.50
2019-03-18T08:28:30.574Z,73.60
2019-03-18T08:31:00.889Z,72.00
2019-03-18T08:33:31.270Z,71.60
2019-03-18T08:36:01.629Z,70.50
2019-03-18T08:38:31.935Z,69.10
2019-03-18T08:41:02.269Z,69.40
2019-03-18T08:43:32.581Z,69.60
2019-03-18T08:46:02.929Z,69.60
2019-03-18T08:48:33.265Z,65.70
2019-03-18T08:51:03.593Z,63.60
2019-03-18T08:53:35.188Z,61.70
2019-03-18T08:56:05.571Z,62.70
2019-03-18T08:58:35.921Z,63.20
2019-03-18T09:01:06.263Z,60.80
2019-03-18T09:03:37.569Z,59.70
2019-03-18T09:06:07.894Z,58.70
2019-03-18T09:08:38.211Z,57.80
2019-03-18T09:11:08.521Z,57.70
2019-03-18T09:13:38.889Z,57.00
2019-03-18T09:16:09.225Z,55.60
2019-03-18T09:18:39.533Z,54.40
2019-03-18T09:21:09.902Z,54.30
2019-03-18T09:23:40.314Z,54.20
2019-03-18T09:26:10.603Z,55.00
2019-03-18T09:28:41.948Z,55.00
2019-03-18T09:31:12.384Z,54.90
2019-03-18T09:33:42.725Z,55.20
2019-03-18T09:36:13.094Z,55.30
2019-03-18T09:38:43.953Z,54.20
2019-03-18T09:41:14.315Z,54.30
2019-03-18T09:43:44.660Z,54.60
2019-03-18T09:46:15.619Z,54.90
2019-03-18T09:48:45.908Z,55.20
2019-03-18T09:51:16.255Z,55.60
2019-03-18T09:53:47.291Z,54.60
2019-03-18T09:56:17.626Z,55.00
2019-03-18T09:58:47.963Z,55.10
2019-03-18T10:01:18.977Z,55.30
2019-03-18T10:03:49.319Z,55.40
2019-03-18T10:06:19.643Z,54.90
2019-03-18T10:08:49.967Z,55.20
2019-03-18T10:11:20.262Z,55.80
2019-03-18T10:13:50.575Z,56.10
2019-03-18T10:16:20.874Z,56.60
2019-03-18T10:18:51.233Z,57.30
2019-03-18T10:21:21.568Z,57.50
2019-03-18T10:23:52.521Z,57.70
2019-03-18T10:26:22.866Z,57.80
2019-03-18T10:28:53.212Z,58.00
2019-03-18T10:31:23.594Z,57.90
2019-03-18T10:33:53.960Z,56.40
2019-03-18T10:36:24.337Z,54.50
2019-03-18T10:38:54.712Z,54.30
2019-03-18T10:41:25.051Z,54.20
2019-03-18T10:43:55.492Z,54.80
2019-03-18T10:46:26.427Z,52.50
2019-03-18T10:48:56.827Z,51.80
2019-03-18T10:51:27.111Z,50.70
2019-03-18T10:53:57.467Z,50.30
2019-03-18T10:56:27.756Z,50.00
2019-03-18T10:58:58.113Z,49.10
2019-03-18T11:01:28.425Z,49.20
2019-03-18T11:03:58.743Z,48.90
2019-03-18T11:06:29.046Z,48.40
2019-03-18T11:08:59.332Z,47.30
2019-03-18T11:11:29.744Z,47.30
2019-03-18T11:14:00.091Z,47.00
2019-03-18T11:16:31.357Z,47.40
2019-03-18T11:19:01.942Z,47.70
2019-03-18T11:21:32.269Z,48.30
2019-03-18T11:24:03.941Z,48.50
2019-03-18T11:26:34.264Z,48.80
2019-03-18T11:29:05.795Z,49.10
2019-03-18T11:31:36.485Z,49.70
2019-03-18T11:34:10.040Z,50.50
2019-03-18T11:36:40.348Z,50.40
2019-03-18T11:39:11.951Z,50.90
2019-03-18T11:41:42.313Z,51.40
2019-03-18T11:44:12.670Z,51.60
2019-03-18T11:46:44.057Z,51.60
2019-03-18T11:49:14.389Z,52.00
2019-03-18T11:51:44.713Z,52.40
2019-03-18T11:54:16.718Z,52.90
2019-03-18T11:56:46.961Z,52.90
2019-03-18T11:59:17.303Z,53.20
2019-03-18T12:01:47.621Z,53.70
2019-03-18T12:04:18.845Z,53.70
2019-03-18T12:06:49.158Z,54.80
2019-03-18T12:09:19.493Z,55.60
2019-03-18T12:11:49.825Z,55.70
2019-03-18T12:14:21.455Z,55.90
2019-03-18T12:16:51.805Z,55.80
2019-03-18T12:19:23.250Z,56.20
2019-03-18T12:21:53.686Z,56.50
2019-03-18T12:24:24.622Z,56.70
2019-03-18T12:26:54.987Z,56.70
2019-03-18T12:29:25.313Z,56.90
2019-03-18T12:31:55.637Z,56.20
2019-03-18T12:34:25.989Z,55.80
2019-03-18T12:36:56.329Z,56.20
2019-03-18T12:39:27.703Z,56.00
2019-03-18T12:41:58.080Z,56.20
2019-03-18T12:44:28.461Z,56.00
2019-03-18T12:46:58.823Z,55.00
2019-03-18T12:49:29.177Z,55.10
2019-03-18T12:51:59.525Z,55.10
2019-03-18T12:54:30.621Z,55.40
2019-03-18T12:57:00.983Z,56.10
2019-03-18T12:59:31.293Z,56.50
2019-03-18T13:02:01.707Z,56.30
2019-03-18T13:04:34.115Z,56.90
2019-03-18T13:07:05.148Z,57.20
2019-03-18T13:09:35.385Z,54.40
2019-03-18T13:12:05.722Z,53.30
2019-03-18T13:14:36.096Z,52.70
2019-03-18T13:17:06.387Z,52.20
2019-03-18T13:19:36.695Z,51.30
2019-03-18T13:22:07.000Z,51.40
2019-03-18T13:24:37.824Z,51.90
2019-03-18T13:27:08.115Z,52.20
2019-03-18T13:29:38.439Z,52.10
2019-03-18T13:32:08.732Z,51.90
2019-03-18T13:34:39.065Z,51.20
2019-03-18T13:37:09.374Z,51.00
2019-03-18T13:39:39.687Z,51.30
2019-03-18T13:42:09.984Z,51.30
2019-03-18T13:44:40.350Z,51.10
2019-03-18T13:47:10.725Z,51.40
2019-03-18T13:49:42.161Z,52.10
2019-03-18T13:52:12.543Z,52.60
2019-03-18T13:54:43.515Z,52.30
2019-03-18T13:57:13.830Z,51.70
2019-03-18T13:59:44.150Z,52.20
2019-03-18T14:02:14.553Z,52.60
2019-03-18T14:04:44.844Z,52.80
2019-03-18T14:07:15.167Z,52.60
2019-03-18T14:09:45.527Z,52.60
2019-03-18T14:12:15.828Z,53.30
2019-03-18T14:14:46.206Z,53.40
2019-03-18T14:17:16.533Z,53.70
2019-03-18T14:19:46.932Z,54.00
2019-03-18T14:22:17.190Z,54.80
2019-03-18T14:24:47.848Z,55.10
2019-03-18T14:27:18.235Z,54.40
2019-03-18T14:29:48.558Z,53.10
2019-03-18T14:32:18.847Z,53.30
2019-03-18T14:34:49.194Z,52.40
2019-03-18T14:37:19.507Z,51.60
2019-03-18T14:39:49.832Z,51.80
2019-03-18T14:42:20.237Z,51.40
2019-03-18T14:44:50.545Z,50.30
2019-03-18T14:47:20.905Z,50.10
2019-03-18T14:49:51.205Z,50.40
2019-03-18T14:52:22.988Z,51.00
2019-03-18T14:54:53.292Z,51.20
2019-03-18T14:57:24.388Z,51.20
2019-03-18T14:59:54.748Z,51.20
2019-03-18T15:02:25.094Z,50.60
2019-03-18T15:04:55.432Z,50.40
2019-03-18T15:07:25.842Z,50.70
2019-03-18T15:09:56.189Z,51.00
2019-03-18T15:12:27.606Z,51.30
2019-03-18T15:14:57.959Z,51.10
2019-03-18T15:17:28.254Z,52.00
2019-03-18T15:19:58.984Z,51.60
2019-03-18T15:22:29.307Z,51.60
2019-03-18T15:24:59.639Z,51.60
2019-03-18T15:27:31.534Z,51.70
2019-03-18T15:30:01.892Z,52.20
2019-03-18T15:32:32.182Z,52.30
2019-03-18T15:35:03.697Z,52.50
2019-03-18T15:37:34.032Z,52.80
2019-03-18T15:40:05.445Z,53.10
2019-03-18T15:42:35.833Z,53.30
2019-03-18T15:45:06.600Z,53.60
2019-03-18T15:47:36.922Z,53.70
2019-03-18T15:50:08.552Z,54.60
2019-03-18T15:52:38.903Z,54.80
2019-03-18T15:55:09.380Z,54.40
2019-03-18T15:57:41.076Z,54.60
2019-03-18T16:00:13.457Z,54.80
2019-03-18T16:02:43.792Z,55.20
2019-03-18T16:05:14.110Z,55.60
2019-03-18T16:07:44.484Z,55.70
2019-03-18T16:10:14.955Z,55.90
2019-03-18T16:12:45.302Z,56.20
2019-03-18T16:15:16.721Z,56.20
2019-03-18T16:17:47.069Z,56.30
2019-03-18T16:20:17.448Z,56.20
2019-03-18T16:22:47.755Z,56.60
2019-03-18T16:25:18.054Z,56.60
2019-03-18T16:27:49.697Z,56.70
2019-03-18T16:30:20.012Z,56.60
2019-03-18T16:32:50.397Z,56.80
2019-03-18T16:35:20.736Z,57.00
2019-03-18T16:37:51.068Z,57.10
2019-03-18T16:40:21.380Z,57.50
2019-03-18T16:42:51.755Z,57.80
2019-03-18T16:45:22.105Z,58.30
2019-03-18T16:47:52.464Z,58.60
2019-03-18T16:50:22.772Z,58.80
2019-03-18T16:52:53.095Z,58.80
2019-03-18T16:55:23.478Z,58.40
2019-03-18T16:57:54.290Z,58.70
2019-03-18T17:00:24.629Z,59.20
2019-03-18T17:02:55.056Z,59.30
2019-03-18T17:05:25.331Z,59.60
2019-03-18T17:07:55.759Z,59.70
2019-03-18T17:10:26.097Z,59.80
2019-03-18T17:12:56.454Z,60.10
2019-03-18T17:15:26.795Z,60.40
2019-03-18T17:17:57.239Z,61.70
2019-03-18T17:20:27.609Z,61.30
2019-03-18T17:22:57.958Z,61.90
2019-03-18T17:25:28.388Z,62.00
2019-03-18T17:27:58.749Z,62.50
2019-03-18T17:30:29.209Z,62.80
2019-03-18T17:32:59.515Z,63.00
2019-03-18T17:35:29.857Z,63.40
2019-03-18T17:38:00.172Z,63.80
2019-03-18T17:40:30.529Z,64.10
2019-03-18T17:43:00.883Z,64.20
2019-03-18T17:45:31.273Z,64.50
2019-03-18T17:48:01.613Z,64.80
2019-03-18T17:50:32.001Z,65.00
2019-03-18T17:53:03.970Z,65.30
2019-03-18T17:55:34.559Z,65.10
2019-03-18T17:58:05.949Z,65.10
2019-03-18T18:00:39.653Z,65.30
2019-03-18T18:03:09.983Z,65.50
2019-03-18T18:05:40.305Z,65.80
2019-03-18T18:08:10.625Z,65.90
2019-03-18T18:10:41.081Z,66.00
2019-03-18T18:13:11.408Z,66.10
2019-03-18T18:15:41.739Z,66.00
2019-03-18T18:18:12.093Z,66.20
2019-03-18T18:20:42.461Z,66.50
2019-03-18T18:23:14.696Z,66.50
2019-03-18T18:25:44.856Z,66.60
2019-03-18T18:28:15.182Z,66.80
2019-03-18T18:30:45.524Z,66.60
2019-03-18T18:33:15.859Z,66.50
2019-03-18T18:35:46.213Z,66.50
2019-03-18T18:38:16.538Z,66.60
2019-03-18T18:40:46.883Z,66.30
2019-03-18T18:43:17.212Z,66.70
2019-03-18T18:45:47.524Z,66.50
2019-03-18T18:48:17.857Z,66.40
2019-03-18T18:50:50.711Z,66.40
2019-03-18T18:53:26.349Z,66.50
2019-03-18T18:55:52.194Z,66.50
2019-03-18T18:58:22.604Z,66.60
2019-03-18T19:00:52.919Z,66.80
2019-03-18T19:03:23.281Z,66.90
2019-03-18T19:05:53.699Z,67.00
2019-03-18T19:08:24.107Z,67.10
2019-03-18T19:10:54.537Z,67.10
2019-03-18T19:13:24.895Z,67.20
2019-03-18T19:15:55.322Z,67.40
2019-03-18T19:18:36.991Z,67.40
2019-03-18T19:20:57.606Z,67.60
2019-03-18T19:23:37.148Z,67.80
2019-03-18T19:25:59.865Z,67.70
2019-03-18T19:28:31.471Z,67.70
2019-03-18T19:31:01.817Z,67.70
2019-03-18T19:33:32.239Z,67.80
2019-03-18T19:36:02.649Z,67.90
2019-03-18T19:38:32.997Z,68.00
2019-03-18T19:41:03.323Z,68.20
2019-03-18T19:43:33.736Z,68.30
2019-03-18T19:46:04.131Z,68.40
2019-03-18T19:48:34.648Z,68.50
2019-03-18T19:51:05.015Z,68.70
2019-03-18T19:53:35.308Z,68.90
2019-03-18T19:56:05.649Z,69.30
2019-03-18T19:58:37.122Z,69.60
2019-03-18T20:01:07.458Z,69.80
2019-03-18T20:03:37.931Z,70.00
2019-03-18T20:06:08.249Z,70.00
2019-03-18T20:08:38.637Z,70.40
2019-03-18T20:11:08.998Z,70.60
2019-03-18T20:13:39.294Z,70.80
2019-03-18T20:16:10.075Z,70.90
2019-03-18T20:18:40.426Z,71.10
2019-03-18T20:21:12.748Z,71.30
2019-03-18T20:23:43.127Z,71.40
2019-03-18T20:26:13.476Z,71.60
2019-03-18T20:28:45.134Z,72.00
2019-03-18T20:31:25.305Z,71.90
2019-03-18T20:33:47.483Z,72.10
2019-03-18T20:36:17.779Z,72.30
2019-03-18T20:38:48.122Z,72.40
2019-03-18T20:41:29.951Z,72.50
2019-03-18T20:44:00.230Z,72.60
2019-03-18T20:46:30.606Z,72.90
2019-03-18T20:49:00.995Z,73.10
2019-03-18T20:51:31.590Z,73.30
2019-03-18T20:54:11.687Z,74.20
2019-03-18T20:56:33.990Z,73.50
2019-03-18T20:59:05.313Z,73.60
2019-03-18T21:01:35.663Z,73.50
2019-03-18T21:04:05.967Z,73.70
2019-03-18T21:06:36.296Z,73.80
2019-03-18T21:09:07.913Z,74.00
2019-03-18T21:11:38.538Z,74.20
2019-03-18T21:14:08.933Z,74.70
2019-03-18T21:16:39.327Z,74.90
2019-03-18T21:19:10.745Z,75.10
2019-03-18T21:21:41.174Z,75.20
2019-03-18T21:24:22.470Z,75.60
2019-03-18T21:26:43.547Z,75.70
2019-03-18T21:29:14.237Z,75.90
2019-03-18T21:31:44.633Z,76.10
2019-03-18T21:34:15.024Z,76.30
2019-03-18T21:36:45.483Z,76.20
2019-03-18T21:39:17.999Z,76.00
2019-03-18T21:41:47.847Z,76.30
2019-03-18T21:44:18.189Z,76.40
2019-03-18T21:46:48.543Z,76.50
2019-03-18T21:49:18.858Z,76.60
2019-03-18T21:51:49.217Z,76.80
2019-03-18T21:54:19.547Z,76.90
2019-03-18T21:56:49.911Z,76.80
2019-03-18T21:59:20.261Z,76.80
2019-03-18T22:01:50.629Z,76.90
2019-03-18T22:04:20.940Z,76.90
2019-03-18T22:06:51.250Z,77.10
2019-03-18T22:09:21.592Z,77.20
2019-03-18T22:11:51.987Z,77.40
2019-03-18T22:14:22.334Z,77.60
2019-03-18T22:16:52.690Z,77.70
2019-03-18T22:19:23.016Z,77.80
2019-03-18T22:21:53.326Z,78.10
2019-03-18T22:24:23.669Z,78.10
2019-03-18T22:26:53.979Z,78.30
2019-03-18T22:29:24.316Z,78.50
2019-03-18T22:31:54.615Z,78.50
2019-03-18T22:34:24.958Z,78.60
2019-03-18T22:36:55.332Z,78.80
2019-03-18T22:39:25.723Z,78.90
2019-03-18T22:41:56.101Z,79.10
2019-03-18T22:44:26.473Z,79.20
2019-03-18T22:46:56.845Z,79.50
2019-03-18T22:49:27.169Z,79.80
2019-03-18T22:51:57.465Z,80.10
2019-03-18T22:54:27.795Z,80.20
2019-03-18T22:56:58.106Z,80.30
2019-03-18T22:59:29.049Z,80.40
2019-03-18T23:01:59.378Z,81.50
2019-03-18T23:04:29.699Z,80.60
2019-03-18T23:06:59.981Z,80.80
2019-03-18T23:09:30.330Z,81.00
2019-03-18T23:12:00.630Z,81.00
2019-03-18T23:14:31.009Z,81.30
2019-03-18T23:17:01.382Z,81.40
2019-03-18T23:19:31.728Z,81.60
2019-03-18T23:22:02.046Z,81.90
2019-03-18T23:24:32.434Z,82.00
2019-03-18T23:27:02.820Z,82.20
2019-03-18T23:29:33.163Z,82.70
2019-03-18T23:32:03.565Z,83.00
2019-03-18T23:34:33.910Z,83.10
2019-03-18T23:37:04.354Z,83.20
2019-03-18T23:39:34.742Z,83.30
2019-03-18T23:42:05.096Z,83.40
2019-03-18T23:44:35.390Z,83.70
2019-03-18T23:47:05.798Z,83.90
2019-03-18T23:49:36.070Z,84.00
2019-03-18T23:52:06.401Z,84.30
2019-03-18T23:54:36.790Z,84.50
2019-03-18T23:57:07.129Z,84.60
2019-03-18T23:59:39.798Z,84.70
